createdAt,value
2018-12-18T00:02:04.473Z,4.70
2018-12-18T00:04:30.854Z,4.60
2018-12-18T00:06:57.265Z,4.87
2018-12-18T00:09:23.655Z,4.73
2018-12-18T00:11:49.997Z,4.03
2018-12-18T00:14:16.377Z,4.17
2018-12-18T00:16:42.780Z,4.40
2018-12-18T00:19:09.139Z,4.40
2018-12-18T00:21:35.534Z,4.50
2018-12-18T00:24:01.927Z,4.47
2018-12-18T00:26:28.345Z,4.20
2018-12-18T00:28:54.838Z,5.30
2018-12-18T00:31:21.304Z,4.60
2018-12-18T00:33:47.741Z,4.33
2018-12-18T00:36:14.093Z,3.93
2018-12-18T00:38:40.465Z,3.60
2018-12-18T00:41:06.813Z,3.80
2018-12-18T00:43:33.187Z,4.20
2018-12-18T00:45:59.570Z,3.73
2018-12-18T00:48:25.940Z,3.53
2018-12-18T00:50:52.359Z,3.33
2018-12-18T00:53:18.818Z,3.87
2018-12-18T00:55:45.234Z,3.93
2018-12-18T00:58:11.648Z,3.63
2018-12-18T01:00:38.024Z,3.73
2018-12-18T01:03:04.416Z,3.57
2018-12-18T01:05:30.810Z,3.00
2018-12-18T01:07:57.155Z,3.03
2018-12-18T01:10:23.517Z,3.97
2018-12-18T01:12:49.833Z,3.80
2018-12-18T01:15:16.262Z,3.10
2018-12-18T01:17:42.667Z,3.60
2018-12-18T01:20:09.041Z,3.00
2018-12-18T01:22:35.394Z,3.67
2018-12-18T01:25:01.781Z,3.30
2018-12-18T01:27:29.123Z,3.47
2018-12-18T01:29:55.552Z,3.13
2018-12-18T01:32:22.133Z,2.90
2018-12-18T01:34:48.542Z,3.10
2018-12-18T01:37:14.958Z,3.30
2018-12-18T01:39:41.293Z,3.70
2018-12-18T01:42:07.654Z,3.23
2018-12-18T01:44:34.006Z,3.90
2018-12-18T01:47:00.396Z,3.13
2018-12-18T01:49:26.753Z,3.03
2018-12-18T01:51:53.098Z,2.67
2018-12-18T01:54:19.493Z,2.80
2018-12-18T01:56:45.828Z,2.87
2018-12-18T01:59:12.190Z,3.50
2018-12-18T02:01:38.693Z,3.23
2018-12-18T02:04:06.143Z,3.10
2018-12-18T02:06:33.002Z,3.63
2018-12-18T02:09:00.178Z,3.20
2018-12-18T02:11:26.526Z,4.03
2018-12-18T02:13:52.841Z,3.20
2018-12-18T02:16:19.230Z,3.47
2018-12-18T02:18:45.638Z,3.10
2018-12-18T02:21:12.077Z,3.53
2018-12-18T02:23:39.470Z,3.17
2018-12-18T02:26:05.839Z,2.93
2018-12-18T02:28:32.227Z,4.03
2018-12-18T02:30:58.617Z,4.73
2018-12-18T02:33:24.980Z,4.20
2018-12-18T02:35:51.349Z,4.63
2018-12-18T02:38:17.874Z,3.60
2018-12-18T02:40:44.230Z,4.13
2018-12-18T02:43:10.620Z,3.90
2018-12-18T02:45:37.049Z,4.00
2018-12-18T02:48:03.462Z,3.77
2018-12-18T02:50:29.858Z,5.23
2018-12-18T02:52:56.261Z,3.40
2018-12-18T02:55:22.591Z,4.00
2018-12-18T02:57:48.936Z,3.90
2018-12-18T03:00:15.330Z,3.80
2018-12-18T03:02:41.719Z,4.10
2018-12-18T03:05:08.254Z,4.20
2018-12-18T03:07:34.653Z,4.37
2018-12-18T03:10:01.086Z,4.33
2018-12-18T03:12:27.603Z,4.67
2018-12-18T03:14:54.031Z,4.07
2018-12-18T03:17:20.410Z,4.13
2018-12-18T03:19:46.776Z,4.60
2018-12-18T03:22:13.192Z,4.40
2018-12-18T03:24:39.566Z,4.73
2018-12-18T03:27:05.978Z,4.47
2018-12-18T03:29:32.432Z,4.57
2018-12-18T03:32:00.873Z,4.43
2018-12-18T03:34:28.404Z,5.67
2018-12-18T03:36:54.969Z,5.37
2018-12-18T03:39:21.369Z,3.87
2018-12-18T03:41:47.883Z,4.83
2018-12-18T03:44:14.256Z,5.17
2018-12-18T03:46:40.673Z,5.37
2018-12-18T03:49:07.048Z,4.93
2018-12-18T03:51:33.430Z,5.77
2018-12-18T03:53:59.795Z,6.20
2018-12-18T03:56:26.149Z,5.20
2018-12-18T03:58:52.520Z,5.20
2018-12-18T04:01:18.917Z,5.87
2018-12-18T04:03:45.283Z,6.10
2018-12-18T04:06:11.688Z,5.40
2018-12-18T04:08:38.146Z,6.17
2018-12-18T04:11:05.082Z,5.87
2018-12-18T04:13:31.668Z,5.63
2018-12-18T04:15:58.083Z,5.87
2018-12-18T04:18:24.469Z,6.23
2018-12-18T04:20:50.857Z,6.37
2018-12-18T04:23:17.255Z,6.63
2018-12-18T04:25:43.621Z,6.77
2018-12-18T04:28:10.082Z,6.43
2018-12-18T04:30:36.398Z,6.47
2018-12-18T04:33:02.799Z,6.97
2018-12-18T04:35:29.140Z,5.97
2018-12-18T04:37:55.602Z,6.70
2018-12-18T04:40:22.015Z,6.87
2018-12-18T04:42:48.413Z,6.77
2018-12-18T04:45:15.755Z,7.03
2018-12-18T04:47:42.428Z,7.40
2018-12-18T04:50:08.789Z,6.80
2018-12-18T04:52:35.125Z,6.83
2018-12-18T04:55:01.599Z,6.57
2018-12-18T04:57:28.075Z,7.00
2018-12-18T04:59:54.466Z,6.97
2018-12-18T05:02:20.871Z,7.10
2018-12-18T05:04:50.493Z,7.70
2018-12-18T05:07:15.781Z,7.27
2018-12-18T05:09:42.099Z,6.70
2018-12-18T05:12:08.459Z,7.50
2018-12-18T05:14:34.820Z,7.83
2018-12-18T05:17:01.189Z,8.00
2018-12-18T05:19:27.711Z,7.63
2018-12-18T05:21:54.195Z,7.87
2018-12-18T05:24:20.541Z,8.73
2018-12-18T05:26:46.971Z,7.23
2018-12-18T05:29:13.443Z,7.90
2018-12-18T05:31:39.844Z,7.57
2018-12-18T05:34:06.237Z,8.10
2018-12-18T05:36:32.642Z,8.00
2018-12-18T05:38:59.058Z,7.57
2018-12-18T05:41:25.483Z,7.77
2018-12-18T05:43:51.944Z,8.80
2018-12-18T05:46:18.291Z,8.60
2018-12-18T05:48:44.679Z,8.17
2018-12-18T05:51:11.084Z,9.07
2018-12-18T05:53:37.450Z,6.83
2018-12-18T05:56:04.383Z,8.37
2018-12-18T05:58:30.740Z,7.83
2018-12-18T06:00:57.109Z,7.60
2018-12-18T06:03:23.477Z,8.23
2018-12-18T06:05:49.869Z,8.23
2018-12-18T06:08:16.280Z,8.10
2018-12-18T06:10:42.623Z,7.47
2018-12-18T06:13:09.010Z,8.10
2018-12-18T06:15:35.352Z,7.87
2018-12-18T06:18:01.763Z,8.37
2018-12-18T06:20:28.121Z,7.67
2018-12-18T06:22:54.539Z,9.07
2018-12-18T06:25:20.933Z,8.33
2018-12-18T06:27:47.284Z,7.53
2018-12-18T06:30:13.720Z,8.17
2018-12-18T06:32:40.094Z,8.17
2018-12-18T06:35:10.227Z,8.40
2018-12-18T06:37:35.042Z,8.80
2018-12-18T06:40:01.394Z,9.03
2018-12-18T06:42:27.762Z,8.40
2018-12-18T06:44:54.136Z,8.23
2018-12-18T06:50:13.099Z,7.57
2018-12-18T06:52:39.487Z,8.40
2018-12-18T06:55:05.909Z,9.07
2018-12-18T06:57:32.351Z,8.00
2018-12-18T06:59:58.994Z,7.90
2018-12-18T07:02:25.490Z,7.93
2018-12-18T07:04:51.915Z,7.80
2018-12-18T07:07:18.299Z,6.87
2018-12-18T07:09:44.697Z,8.23
2018-12-18T07:12:11.103Z,7.60
2018-12-18T07:14:37.563Z,10.00
2018-12-18T07:17:04.106Z,7.50
2018-12-18T07:19:30.565Z,8.47
2018-12-18T07:21:57.021Z,8.10
2018-12-18T07:24:23.447Z,8.23
2018-12-18T07:26:49.846Z,8.13
2018-12-18T07:29:16.325Z,8.33
2018-12-18T07:31:42.714Z,7.43
2018-12-18T07:34:09.103Z,8.03
2018-12-18T07:36:35.494Z,6.70
2018-12-18T07:39:02.042Z,6.43
2018-12-18T07:41:28.423Z,8.53
2018-12-18T07:43:54.764Z,6.97
2018-12-18T07:46:21.233Z,6.57
2018-12-18T07:48:47.722Z,8.03
2018-12-18T07:51:14.254Z,7.47
2018-12-18T07:53:40.774Z,6.70
2018-12-18T07:56:07.245Z,6.77
2018-12-18T07:58:33.754Z,6.80
2018-12-18T08:01:00.375Z,7.17
2018-12-18T08:03:26.834Z,8.30
2018-12-18T08:05:54.226Z,8.57
2018-12-18T08:08:20.837Z,7.97
2018-12-18T08:10:47.293Z,8.53
2018-12-18T08:13:13.836Z,7.97
2018-12-18T08:15:40.419Z,8.77
2018-12-18T08:18:06.977Z,7.30
2018-12-18T08:20:33.423Z,8.07
2018-12-18T08:22:59.799Z,7.80
2018-12-18T08:25:26.198Z,7.83
2018-12-18T08:27:52.557Z,8.33
2018-12-18T08:30:18.941Z,8.93
2018-12-18T08:32:45.437Z,8.60
2018-12-18T08:35:12.019Z,10.63
2018-12-18T08:37:39.293Z,8.00
2018-12-18T08:40:06.432Z,9.13
2018-12-18T08:42:32.827Z,9.83
2018-12-18T08:45:06.331Z,9.97
2018-12-18T08:47:32.841Z,8.83
2018-12-18T08:49:59.250Z,9.43
2018-12-18T08:52:25.681Z,10.63
2018-12-18T08:54:52.146Z,9.50
2018-12-18T08:57:18.562Z,10.03
2018-12-18T09:02:39.620Z,9.07
2018-12-18T09:05:06.078Z,10.13
2018-12-18T09:07:32.431Z,9.53
2018-12-18T09:09:58.809Z,9.77
2018-12-18T09:12:25.229Z,9.40
2018-12-18T09:14:56.756Z,10.27
2018-12-18T09:17:25.288Z,9.63
2018-12-18T09:19:51.693Z,9.30
2018-12-18T09:22:18.053Z,11.60
2018-12-18T09:24:44.402Z,12.33
2018-12-18T09:27:10.847Z,11.70
2018-12-18T09:29:37.233Z,11.13
2018-12-18T09:32:03.718Z,11.13
2018-12-18T09:34:30.165Z,12.43
2018-12-18T09:36:56.560Z,11.60
2018-12-18T09:39:25.056Z,12.60
2018-12-18T09:41:53.508Z,11.80
2018-12-18T09:44:19.862Z,12.60
2018-12-18T09:46:46.332Z,12.67
2018-12-18T09:49:13.713Z,13.63
2018-12-18T09:51:40.317Z,12.97
2018-12-18T09:54:07.108Z,13.83
2018-12-18T09:56:35.755Z,13.23
2018-12-18T09:59:02.238Z,12.53
2018-12-18T10:01:28.882Z,14.97
2018-12-18T10:03:55.264Z,13.80
2018-12-18T10:06:21.658Z,12.87
2018-12-18T10:08:48.360Z,13.50
2018-12-18T10:11:14.786Z,12.97
2018-12-18T10:16:35.169Z,11.73
2018-12-18T10:19:01.709Z,16.23
2018-12-18T10:21:28.338Z,13.93
2018-12-18T10:23:54.791Z,12.43
2018-12-18T10:26:21.292Z,12.20
2018-12-18T10:28:47.690Z,13.10
2018-12-18T10:31:15.254Z,12.03
2018-12-18T10:33:41.711Z,14.93
2018-12-18T10:36:08.162Z,12.83
2018-12-18T10:38:34.570Z,13.77
2018-12-18T10:41:01.487Z,13.63
2018-12-18T10:43:28.036Z,13.10
2018-12-18T10:45:54.561Z,13.60
2018-12-18T10:48:20.976Z,13.67
2018-12-18T10:50:47.502Z,12.37
2018-12-18T10:53:13.998Z,12.60
2018-12-18T10:55:40.472Z,13.03
2018-12-18T10:58:06.866Z,13.53
2018-12-18T11:00:40.655Z,13.77
2018-12-18T11:03:07.325Z,14.00
2018-12-18T11:05:34.928Z,13.10
2018-12-18T11:08:01.999Z,14.27
2018-12-18T11:10:28.784Z,14.27
2018-12-18T11:13:01.309Z,13.50
2018-12-18T11:15:27.830Z,13.23
2018-12-18T11:17:54.522Z,13.33
2018-12-18T11:20:20.983Z,14.20
2018-12-18T11:22:47.370Z,13.73
2018-12-18T11:25:13.887Z,13.00
2018-12-18T11:27:40.336Z,13.00
2018-12-18T11:30:06.960Z,13.90
2018-12-18T11:32:33.530Z,13.63
2018-12-18T11:34:59.968Z,13.50
2018-12-18T11:37:26.408Z,12.00
2018-12-18T11:39:53.049Z,12.83
2018-12-18T11:42:19.495Z,12.07
2018-12-18T11:44:45.986Z,12.77
2018-12-18T11:47:12.429Z,13.77
2018-12-18T11:49:38.854Z,12.50
2018-12-18T11:52:05.331Z,13.70
2018-12-18T11:54:31.750Z,13.33
2018-12-18T11:56:58.189Z,13.13
2018-12-18T11:59:24.731Z,14.50
2018-12-18T12:01:51.195Z,12.87
2018-12-18T12:04:17.723Z,12.63
2018-12-18T12:06:45.201Z,14.27
2018-12-18T12:09:11.557Z,13.20
2018-12-18T12:11:37.959Z,14.20
2018-12-18T12:14:04.379Z,13.73
2018-12-18T12:16:30.963Z,13.60
2018-12-18T12:18:57.461Z,14.23
2018-12-18T12:21:23.849Z,13.87
2018-12-18T12:23:50.348Z,14.17
2018-12-18T12:26:22.691Z,14.13
2018-12-18T12:28:49.175Z,12.87
2018-12-18T12:31:16.115Z,12.27
2018-12-18T12:33:42.492Z,13.27
2018-12-18T12:36:08.986Z,13.40
2018-12-18T12:38:35.405Z,12.80
2018-12-18T12:41:01.798Z,14.27
2018-12-18T12:43:28.233Z,13.13
2018-12-18T12:45:54.713Z,15.40
2018-12-18T12:48:23.206Z,13.40
2018-12-18T12:50:49.613Z,14.57
2018-12-18T12:53:16.599Z,14.87
2018-12-18T12:55:42.980Z,12.70
2018-12-18T12:58:09.485Z,13.17
2018-12-18T13:00:35.925Z,12.67
2018-12-18T13:03:02.405Z,16.87
2018-12-18T13:05:28.757Z,13.47
2018-12-18T13:07:56.192Z,13.30
2018-12-18T13:10:22.800Z,14.57
2018-12-18T13:12:49.309Z,13.53
2018-12-18T13:15:15.738Z,16.30
2018-12-18T13:17:42.233Z,14.73
2018-12-18T13:20:08.706Z,15.20
2018-12-18T13:22:35.100Z,15.97
2018-12-18T13:25:01.533Z,15.03
2018-12-18T13:27:27.959Z,13.43
2018-12-18T13:29:54.737Z,15.93
2018-12-18T13:32:21.345Z,14.23
2018-12-18T13:34:47.969Z,14.07
2018-12-18T13:37:14.454Z,15.07
2018-12-18T13:39:41.111Z,14.93
2018-12-18T13:42:08.116Z,16.60
2018-12-18T13:44:34.713Z,15.37
2018-12-18T13:47:01.496Z,15.63
2018-12-18T13:49:28.012Z,15.33
2018-12-18T13:51:54.584Z,16.73
2018-12-18T13:54:21.004Z,16.07
2018-12-18T13:56:47.491Z,17.03
2018-12-18T13:59:13.924Z,14.90
2018-12-18T14:01:41.182Z,18.73
2018-12-18T14:04:07.600Z,16.30
2018-12-18T14:06:35.026Z,16.53
2018-12-18T14:09:16.321Z,18.03
2018-12-18T14:11:42.776Z,14.10
2018-12-18T14:14:09.180Z,16.50
2018-12-18T14:16:35.604Z,15.43
2018-12-18T14:19:02.166Z,15.37
2018-12-18T14:21:28.714Z,16.40
2018-12-18T14:23:55.089Z,16.37
2018-12-18T14:26:22.008Z,16.67
2018-12-18T14:28:48.457Z,17.40
2018-12-18T14:31:14.947Z,18.97
2018-12-18T14:33:41.283Z,15.90
2018-12-18T14:36:07.757Z,14.83
2018-12-18T14:38:34.406Z,15.93
2018-12-18T14:41:00.919Z,15.73
2018-12-18T14:43:27.451Z,16.50
2018-12-18T14:45:53.885Z,17.73
2018-12-18T14:48:20.319Z,15.00
2018-12-18T14:50:46.715Z,17.40
2018-12-18T14:53:13.236Z,15.00
2018-12-18T14:55:39.895Z,17.37
2018-12-18T14:58:06.567Z,15.63
2018-12-18T15:00:33.184Z,17.33
2018-12-18T15:02:59.701Z,16.13
2018-12-18T15:05:26.225Z,16.40
2018-12-18T15:07:52.698Z,16.50
2018-12-18T15:10:19.147Z,16.97
2018-12-18T15:12:48.490Z,18.07
2018-12-18T15:15:14.914Z,16.33
2018-12-18T15:17:41.319Z,18.17
2018-12-18T15:20:07.758Z,14.87
2018-12-18T15:22:34.292Z,16.73
2018-12-18T15:25:00.827Z,16.20
2018-12-18T15:27:27.189Z,17.83
2018-12-18T15:29:53.832Z,15.83
2018-12-18T15:32:20.457Z,15.93
2018-12-18T15:34:47.019Z,16.57
2018-12-18T15:37:13.448Z,16.97
2018-12-18T15:39:39.868Z,15.63
2018-12-18T15:42:06.315Z,15.53
2018-12-18T15:44:32.878Z,16.50
2018-12-18T15:46:59.341Z,14.43
2018-12-18T15:49:25.916Z,15.83
2018-12-18T15:51:52.281Z,14.90
2018-12-18T15:54:18.811Z,15.13
2018-12-18T15:56:45.287Z,16.07
2018-12-18T15:59:11.695Z,14.70
2018-12-18T16:01:38.080Z,15.83
2018-12-18T16:04:04.567Z,15.40
2018-12-18T16:06:31.107Z,16.57
2018-12-18T16:08:57.591Z,15.30
2018-12-18T16:11:23.971Z,15.50
2018-12-18T16:13:50.397Z,16.40
2018-12-18T16:16:17.053Z,13.80
2018-12-18T16:18:43.564Z,16.37
2018-12-18T16:21:10.498Z,15.07
2018-12-18T16:23:37.697Z,13.67
2018-12-18T16:26:04.592Z,13.07
2018-12-18T16:28:30.925Z,14.23
2018-12-18T16:30:57.286Z,13.43
2018-12-18T16:33:23.838Z,11.77
2018-12-18T16:35:50.292Z,12.00
2018-12-18T16:38:16.673Z,12.00
2018-12-18T16:40:43.103Z,12.23
2018-12-18T16:43:09.536Z,10.40
2018-12-18T16:45:36.047Z,10.80
2018-12-18T16:48:02.506Z,11.20
2018-12-18T16:50:29.061Z,11.77
2018-12-18T16:52:55.547Z,10.97
2018-12-18T16:55:22.066Z,11.30
2018-12-18T16:57:48.569Z,12.77
2018-12-18T17:00:14.913Z,11.60
2018-12-18T17:02:41.444Z,12.27
2018-12-18T17:05:07.888Z,11.63
2018-12-18T17:07:34.446Z,17.67
2018-12-18T17:10:00.871Z,12.00
2018-12-18T17:12:27.429Z,11.37
2018-12-18T17:14:54.050Z,11.10
2018-12-18T17:17:20.603Z,10.73
2018-12-18T17:19:47.021Z,13.40
2018-12-18T17:22:13.411Z,11.63
2018-12-18T17:24:39.800Z,10.87
2018-12-18T17:27:06.243Z,10.83
2018-12-18T17:29:32.855Z,11.77
2018-12-18T17:31:59.275Z,12.57
2018-12-18T17:34:25.742Z,13.37
2018-12-18T17:36:52.101Z,13.10
2018-12-18T17:39:18.470Z,12.67
2018-12-18T17:42:00.111Z,14.47
2018-12-18T17:44:26.483Z,14.03
2018-12-18T17:46:52.841Z,13.20
2018-12-18T17:49:19.201Z,13.60
2018-12-18T17:51:45.578Z,15.07
2018-12-18T17:54:12.244Z,14.87
2018-12-18T17:56:38.694Z,14.73
2018-12-18T17:59:07.063Z,14.03
2018-12-18T18:01:33.656Z,14.60
2018-12-18T18:04:00.459Z,14.43
2018-12-18T18:06:26.851Z,13.43
2018-12-18T18:08:53.253Z,15.27
2018-12-18T18:11:19.827Z,14.30
2018-12-18T18:13:46.480Z,14.90
2018-12-18T18:16:12.911Z,15.37
2018-12-18T18:18:39.318Z,14.77
2018-12-18T18:21:06.849Z,14.90
2018-12-18T18:23:34.298Z,14.60
2018-12-18T18:26:01.106Z,15.80
2018-12-18T18:28:27.677Z,15.87
2018-12-18T18:30:54.749Z,15.53
2018-12-18T18:33:21.187Z,14.10
2018-12-18T18:35:47.521Z,14.97
2018-12-18T18:38:14.966Z,14.50
2018-12-18T18:40:41.564Z,15.23
2018-12-18T18:43:07.984Z,14.73
2018-12-18T18:45:34.510Z,15.57
2018-12-18T18:48:01.055Z,14.80
2018-12-18T18:50:27.467Z,16.77
2018-12-18T18:52:53.990Z,15.10
2018-12-18T18:55:20.405Z,16.37
2018-12-18T18:57:46.781Z,15.13
2018-12-18T19:00:13.206Z,15.70
2018-12-18T19:02:39.719Z,14.27
2018-12-18T19:05:06.199Z,13.90
2018-12-18T19:07:32.597Z,14.07
2018-12-18T19:09:59.060Z,14.27
2018-12-18T19:12:25.497Z,14.87
2018-12-18T19:14:51.818Z,16.27
2018-12-18T19:17:18.174Z,17.50
2018-12-18T19:19:44.648Z,19.30
2018-12-18T19:22:11.057Z,16.23
2018-12-18T19:24:37.409Z,15.90
2018-12-18T19:27:03.775Z,16.13
2018-12-18T19:29:30.215Z,15.20
2018-12-18T19:31:56.641Z,13.53
2018-12-18T19:34:23.158Z,15.23
2018-12-18T19:36:49.772Z,14.80
2018-12-18T19:39:16.201Z,14.30
2018-12-18T19:41:42.863Z,14.40
2018-12-18T19:44:09.316Z,14.67
2018-12-18T19:46:35.746Z,14.07
2018-12-18T19:49:02.182Z,15.00
2018-12-18T19:51:29.190Z,14.33
2018-12-18T19:53:55.672Z,13.80
2018-12-18T19:56:22.138Z,17.27
2018-12-18T19:58:48.738Z,15.43
2018-12-18T20:01:16.588Z,13.83
2018-12-18T20:03:42.971Z,13.80
2018-12-18T20:06:09.324Z,12.87
2018-12-18T20:08:35.790Z,14.00
2018-12-18T20:11:02.226Z,17.07
2018-12-18T20:13:28.642Z,14.73
2018-12-18T20:15:56.354Z,15.03
2018-12-18T20:18:22.742Z,15.60
2018-12-18T20:20:49.101Z,15.63
2018-12-18T20:23:15.610Z,21.63
2018-12-18T20:25:42.010Z,18.70
2018-12-18T20:28:08.606Z,13.90
2018-12-18T20:30:35.773Z,15.73
2018-12-18T20:33:02.305Z,13.77
2018-12-18T20:35:28.847Z,13.33
2018-12-18T20:37:55.242Z,12.40
2018-12-18T20:40:21.694Z,14.20
2018-12-18T20:42:48.081Z,15.47
2018-12-18T20:45:14.530Z,15.37
2018-12-18T20:47:40.970Z,14.50
2018-12-18T20:50:07.369Z,17.03
2018-12-18T20:52:33.912Z,13.43
2018-12-18T20:55:00.406Z,13.30
2018-12-18T20:57:26.840Z,13.97
2018-12-18T20:59:53.226Z,14.57
2018-12-18T21:02:19.706Z,14.03
2018-12-18T21:04:46.374Z,15.00
2018-12-18T21:07:12.783Z,19.07
2018-12-18T21:09:39.146Z,15.70
2018-12-18T21:12:05.611Z,14.93
2018-12-18T21:14:32.108Z,13.73
2018-12-18T21:16:59.488Z,14.17
2018-12-18T21:19:25.947Z,15.57
2018-12-18T21:21:52.415Z,15.97
2018-12-18T21:24:18.890Z,16.03
2018-12-18T21:26:45.238Z,15.53
2018-12-18T21:29:12.195Z,13.77
2018-12-18T21:31:38.565Z,14.57
2018-12-18T21:34:04.943Z,16.07
2018-12-18T21:36:31.898Z,14.23
2018-12-18T21:38:58.265Z,14.40
2018-12-18T21:41:24.648Z,14.97
2018-12-18T21:43:54.780Z,16.67
2018-12-18T21:46:21.331Z,14.57
2018-12-18T21:48:48.174Z,14.80
2018-12-18T21:51:14.852Z,14.17
2018-12-18T21:53:48.433Z,69.33
2018-12-18T21:56:15.104Z,13.70
2018-12-18T21:58:42.349Z,17.33
2018-12-18T22:01:08.860Z,14.23
2018-12-18T22:03:35.336Z,15.33
2018-12-18T22:06:05.866Z,15.00
2018-12-18T22:08:36.857Z,14.13
2018-12-18T22:11:01.467Z,15.13
2018-12-18T22:13:27.976Z,14.67
2018-12-18T22:15:54.289Z,13.53
2018-12-18T22:18:20.731Z,15.67
2018-12-18T22:20:47.135Z,14.87
2018-12-18T22:23:13.744Z,14.40
2018-12-18T22:25:40.127Z,14.37
2018-12-18T22:28:06.723Z,14.03
2018-12-18T22:30:33.121Z,14.60
2018-12-18T22:33:00.619Z,13.10
2018-12-18T22:35:27.076Z,15.23
2018-12-18T22:37:53.480Z,14.90
2018-12-18T22:40:19.815Z,14.37
2018-12-18T22:42:46.173Z,12.93
2018-12-18T22:45:12.616Z,15.83
2018-12-18T22:47:39.013Z,13.30
2018-12-18T22:50:06.013Z,13.97
2018-12-18T22:52:32.848Z,14.33
2018-12-18T22:54:59.215Z,13.20
2018-12-18T22:57:25.557Z,14.73
2018-12-18T22:59:51.898Z,12.77
2018-12-18T23:02:18.356Z,14.00
2018-12-18T23:04:45.195Z,12.70
2018-12-18T23:07:12.099Z,14.17
2018-12-18T23:09:38.598Z,14.37
2018-12-18T23:12:05.059Z,13.93
2018-12-18T23:14:31.423Z,13.20
2018-12-18T23:16:57.761Z,14.73
2018-12-18T23:19:24.150Z,13.67
2018-12-18T23:21:50.464Z,11.77
2018-12-18T23:24:16.859Z,12.90
2018-12-18T23:26:43.228Z,12.83
2018-12-18T23:29:10.436Z,12.17
2018-12-18T23:31:36.873Z,12.40
2018-12-18T23:34:03.293Z,13.83
2018-12-18T23:36:29.742Z,13.87
2018-12-18T23:38:57.011Z,13.33
2018-12-18T23:41:23.660Z,14.50
2018-12-18T23:43:50.069Z,14.03
2018-12-18T23:46:16.427Z,15.57
2018-12-18T23:48:43.760Z,13.17
2018-12-18T23:51:10.221Z,13.93
2018-12-18T23:53:36.603Z,13.20
2018-12-18T23:56:03.025Z,14.70
2018-12-18T23:58:29.414Z,14.73
